Flight Track Log - Related Links

Times and Time Zones

All times are in EDT time to prevent confusion due to time zone crossing. See the LKF61 flight status page for this flight to view local times or setup timezone preferences in your user account.

Time Position Orientation Groundspeed Altitude Reporting Facility
EDT Latitude Longitude Course Direction KTS MPH feet Rate Location/Type
Tue 02:17:27 PM 33.5619 -81.9953 55° Northeast 304 350 9,800  Level Jacksonville Center
Tue 02:18:27 PM 33.6008 -81.8950 65° Northeast 312 359 10,400 1,750 Climbing Jacksonville Center
Tue 02:19:27 PM 33.6375 -81.7775 69° East 341 392 13,300 2,950 Climbing Jacksonville Center
Tue 02:20:27 PM 33.6739 -81.6522 71° East 369 425 16,300 2,550 Climbing Jacksonville Center
Tue 02:21:00 PM 33.6761 -81.3504 55° Northeast  Level FlightAware Approximate
Tue 02:21:27 PM 33.7394 -81.5439 54° Northeast 384 442 18,400  Level Jacksonville Center
Tue 02:22:00 PM 33.7438 -81.2337 55° Northeast  Level FlightAware Approximate
Tue 02:22:27 PM 33.8281 -81.4325 46° Northeast 419 482 20,400  Level Jacksonville Center
Tue 02:23:27 PM 33.9164 -81.3133 48° Northeast 447 514 22,400 2,000 Climbing Jacksonville Center
Tue 02:24:27 PM 34.0064 -81.1892 49° Northeast 467 537 24,400 2,000 Climbing Jacksonville Center
Tue 02:25:27 PM 34.0817 -81.0422 58° Northeast 494 568 26,400 2,000 Climbing Jacksonville Center
Tue 02:26:27 PM 34.1544 -80.8900 60° Northeast 510 587 28,400 2,000 Climbing Jacksonville Center
Tue 02:27:27 PM 34.2464 -80.7700 47° Northeast 499 574 30,400 1,750 Climbing Jacksonville Center
Tue 02:28:27 PM 34.3444 -80.6492 45° Northeast 493 567 31,900 1,500 Climbing Jacksonville Center
Tue 02:29:27 PM 34.4319 -80.5414 45° Northeast 493 567 33,400 1,518 Climbing Jacksonville Center
Tue 02:31:17 PM 34.6172 -80.3011 47° Northeast 523 602 36,200 1,368 Climbing Washington Center
Tue 02:32:18 PM 34.7117 -80.1803 46° Northeast 505 581 37,300 893 Climbing Washington Center
Tue 02:33:18 PM 34.8061 -80.0614 46° Northeast 493 567 38,000 541 Climbing Washington Center
Tue 02:34:20 PM 34.8956 -79.9500 46° Northeast 493 567 38,400 393 Climbing Washington Center
Tue 02:35:20 PM 34.9919 -79.8283 46° Northeast 493 567 38,800 305 Climbing Washington Center
Tue 02:36:18 PM 35.0858 -79.7064 47° Northeast 493 567 39,000 -151 Climbing Washington Center
Tue 02:37:19 PM 35.1922 -79.5822 44° Northeast 498 573 38,500 -492 Descending Washington Center
Tue 02:38:20 PM 35.3206 -79.4867 31° Northeast 519 597 38,000 -252 Descending Washington Center
Tue 02:39:18 PM 35.4617 -79.3867 30° Northeast 526 605 38,000  Level Washington Center
Tue 02:40:19 PM 35.5728 -79.3050 31° Northeast 526 605 38,000  Level Washington Center
Tue 02:41:20 PM 35.6986 -79.2164 30° Northeast 526 605 38,000  Level Washington Center
Tue 02:42:18 PM 35.8244 -79.1247 31° Northeast 526 605 38,000  Level Washington Center
Tue 02:43:18 PM 35.9500 -79.0328 31° Northeast 526 605 38,000  Level Washington Center
Tue 02:44:19 PM 36.0739 -78.9353 32° Northeast 526 605 38,000  Level Washington Center
Tue 02:45:19 PM 36.1994 -78.8456 30° Northeast 526 605 38,000  Level Washington Center
Tue 02:46:19 PM 36.3272 -78.7503 31° Northeast 526 605 38,000  Level Washington Center
Tue 02:47:20 PM 36.4528 -78.6547 31° Northeast 526 605 38,000  Level Washington Center
Tue 02:48:20 PM 36.5783 -78.5611 31° Northeast 526 605 38,000  Level Washington Center
Tue 02:49:18 PM 36.7122 -78.4550 32° Northeast 526 605 38,000  Level Washington Center
Tue 02:50:18 PM 36.8397 -78.3611 31° Northeast 526 605 38,000  Level Washington Center
Tue 02:51:19 PM 36.9714 -78.2567 32° Northeast 552 635 38,000  Level Washington Center
Tue 02:52:20 PM 37.0944 -78.1644 31° Northeast 552 635 38,000  Level Washington Center
Tue 02:53:20 PM 37.2194 -78.0694 31° Northeast 542 624 38,000  Level Washington Center
Tue 02:54:18 PM 37.3467 -77.9717 31° Northeast 532 612 38,000  Level Washington Center
Tue 02:55:18 PM 37.4717 -77.8736 32° Northeast 532 612 38,000  Level Washington Center
Tue 02:56:19 PM 37.5944 -77.7697 34° Northeast 527 606 38,000  Level Washington Center
Tue 02:57:19 PM 37.7197 -77.6581 35° Northeast 532 612 38,000 -248 Level Washington Center
Tue 02:58:20 PM 37.8403 -77.5456 36° Northeast 532 612 37,500 -843 Descending Washington Center
Tue 02:59:20 PM 37.9653 -77.4328 35° Northeast 544 626 36,300 -1,169 Descending Washington Center
Tue 03:00:18 PM 38.0814 -77.3303 35° Northeast 550 633 35,200 -1,220 Descending Washington Center
Tue 03:01:18 PM 38.2081 -77.2117 36° Northeast 555 639 33,900 -1,300 Descending Washington Center
Tue 03:02:18 PM 38.3328 -77.0950 36° Northeast 555 639 32,600 -1,388 Descending Washington Center
Tue 03:03:19 PM 38.4614 -76.9783 35° Northeast 555 639 31,100 -1,475 Descending Washington Center
Tue 03:04:20 PM 38.5919 -76.8533 37° Northeast 561 646 29,600 -1,488 Descending Washington Center
Tue 03:05:20 PM 38.7203 -76.7306 37° Northeast 566 651 28,100 -1,678 Descending Washington Center
Tue 03:06:18 PM 38.8361 -76.5964 42° Northeast 566 651 26,300 -1,664 Descending Washington Center
Tue 03:07:19 PM 38.9519 -76.4644 42° Northeast 556 640 24,800 -1,140 Descending Washington Center
Tue 03:08:19 PM 39.0611 -76.3375 42° Northeast 538 619 24,000 -397 Descending Washington Center
Tue 03:09:20 PM 39.1722 -76.2075 42° Northeast 532 612 24,000 -504 Level Washington Center
Tue 03:10:18 PM 39.2981 -76.0664 41° Northeast 546 628 23,000 -2,127 Descending Washington Center
Tue 03:12:29 PM 39.5500 -75.8333 35° Northeast 486 559 17,300 -2,368 Descending Philadelphia TRACON
Tue 03:13:23 PM 39.6333 -75.7500 38° Northeast 434 499 15,700 -1,842 Descending Philadelphia TRACON
Tue 03:14:23 PM 39.7333 -75.6500 38° Northeast 435 501 13,800 -1,300 Descending Philadelphia TRACON
Tue 03:15:23 PM 39.8333 -75.5667 33° Northeast 414 476 13,100 -333 Descending Philadelphia TRACON
Tue 03:16:29 PM 39.9333 -75.4833 33° Northeast 423 487 13,100  Level Philadelphia TRACON
Tue 03:17:29 PM 40.0333 -75.3833 37° Northeast 423 487 13,100  Level Philadelphia TRACON
Tue 03:18:29 PM 40.1333 -75.3000 32° Northeast 421 484 13,100 -1,107 Level Philadelphia TRACON
Tue 03:21:22 PM 40.3500 -75.0833 37° Northeast 311 358 8,800 -1,545 Descending New York TRACON
Tue 03:22:22 PM 40.4000 -75.0000 52° Northeast 302 348 7,100 -1,600 Descending New York TRACON
Tue 03:23:22 PM 40.4500 -74.9333 45° Northeast 265 305 5,600 -1,450 Descending New York TRACON
Tue 03:24:22 PM 40.5000 -74.8667 45° Northeast 258 297 4,200 -533 Descending New York TRACON
Tue 03:26:22 PM 40.6333 -74.7833 25° Northeast 264 304 4,000 -50 Descending New York TRACON
Tue 03:28:22 PM 40.7500 -74.6833 33° Northeast 263 303 4,000 -180 Level New York TRACON
Tue 03:31:22 PM 40.9000 -74.4667 78° East 254 292 3,100 -225 Descending New York TRACON
Tue 03:32:22 PM 40.9333 -74.3833 62° Northeast 250 288 3,100 -67 Level New York TRACON
Tue 03:34:22 PM 40.9667 -74.2167 75° East 249 287 2,900 -275 Descending New York TRACON
Tue 03:36:22 PM 40.9833 -74.0667 82° East 196 226 2,000 -525 Descending New York TRACON
Tue 03:38:22 PM 40.9000 -74.0500 171° South 139 160 800 -600 Descending New York TRACON
Tue 03:40:00 PM 40.8500 -74.0500 133° Southeast  Level FlightAware Approximate
Tue 03:47:00 PM 40.8501 -74.0608 133° Southeast  Level Estimated

Login

Don't have an account? Register now (free) for customized features, flight alerts, and more!